Emison, Indiana
Current Conditions -  °F | °C
As of 1:53 AM on Thursday 29 Jan 2015 (Local Time) from KLWV Reporting Station
Overcast Overcast  
Wind Chill: 31°   Ceiling: 10000
Heat Index: 40°   Visibility: 10mi
Dew Point: 33°   Wind: 18mph
Humidity: 77%   Direction: 170°S
Pressure: 29.88"   Gusts: NA
Location:  38.8517°N, 87.414°W
Report Text: KLWV 290753Z AUTO 17016KT 10SM OVC100 04/01 A2988 RMK AO2 RAE36 SLP120 P0003 T00440006 $
Loading
Personal Weather Stations






























Interactive Weather Map New forecast layout! Learn more

10-Day Weather Forecast

Advertisements
Track Severe Weather on mobile